Piedre Park, Colorado
Current Conditions -  °F | °C
As of 1:55 PM on Saturday 25 Oct 2014 (Local Time) from KPSO Reporting Station
Clear Clear  
Wind Chill: 69°   Ceiling: Unl
Heat Index: 69°   Visibility: 10mi
Dew Point: 20°   Wind: 12mph
Humidity: 16%   Direction: 190°S
Pressure: 30.36"   Gusts: NA
Location:  37.2292°N, 107.329°W
Report Text: KPSO 251955Z AUTO 19010KT 10SM CLR 21/M06 A3036 RMK AO2 T02051065
Loading
Personal Weather Stations






























Interactive Weather Map
Tropical Storm Tracking
New forecast layout! Learn more

10-Day Weather Forecast

Advertisements
Track Severe Weather on mobile